sensor_id;sensor_type;location;lat;lon;timestamp;temperature;humidity
68766;DHT22;55756;45.582;11.484;2024-02-15T00:01:42;12.20;60.90
68766;DHT22;55756;45.582;11.484;2024-02-15T00:04:08;12.10;61.00
68766;DHT22;55756;45.582;11.484;2024-02-15T00:06:33;12.10;61.10
68766;DHT22;55756;45.582;11.484;2024-02-15T00:09:00;12.10;60.90
68766;DHT22;55756;45.582;11.484;2024-02-15T00:11:26;12.10;61.10
68766;DHT22;55756;45.582;11.484;2024-02-15T00:13:52;12.10;61.00
68766;DHT22;55756;45.582;11.484;2024-02-15T00:16:18;12.10;60.90
68766;DHT22;55756;45.582;11.484;2024-02-15T00:18:43;12.10;60.70
68766;DHT22;55756;45.582;11.484;2024-02-15T00:21:10;12.10;60.60
68766;DHT22;55756;45.582;11.484;2024-02-15T00:23:36;12.00;60.70
68766;DHT22;55756;45.582;11.484;2024-02-15T00:26:02;12.00;60.90
68766;DHT22;55756;45.582;11.484;2024-02-15T00:28:28;12.00;61.00
68766;DHT22;55756;45.582;11.484;2024-02-15T00:30:53;12.00;60.90
68766;DHT22;55756;45.582;11.484;2024-02-15T00:33:19;11.90;61.00
68766;DHT22;55756;45.582;11.484;2024-02-15T00:35:45;11.90;60.90
68766;DHT22;55756;45.582;11.484;2024-02-15T00:38:11;11.90;61.00
68766;DHT22;55756;45.582;11.484;2024-02-15T00:40:37;11.90;61.00
68766;DHT22;55756;45.582;11.484;2024-02-15T00:43:02;11.90;61.20
68766;DHT22;55756;45.582;11.484;2024-02-15T00:45:28;11.80;61.40
68766;DHT22;55756;45.582;11.484;2024-02-15T00:47:54;11.80;61.40
68766;DHT22;55756;45.582;11.484;2024-02-15T00:50:21;11.80;61.00
68766;DHT22;55756;45.582;11.484;2024-02-15T00:52:47;11.80;60.80
68766;DHT22;55756;45.582;11.484;2024-02-15T00:55:13;11.80;60.80
68766;DHT22;55756;45.582;11.484;2024-02-15T00:57:38;11.70;61.00
68766;DHT22;55756;45.582;11.484;2024-02-15T01:00:05;11.70;61.20
68766;DHT22;55756;45.582;11.484;2024-02-15T01:02:31;11.70;61.40
68766;DHT22;55756;45.582;11.484;2024-02-15T01:04:57;11.70;61.30
68766;DHT22;55756;45.582;11.484;2024-02-15T01:07:24;11.70;61.80
68766;DHT22;55756;45.582;11.484;2024-02-15T01:09:53;11.70;62.00
68766;DHT22;55756;45.582;11.484;2024-02-15T01:12:19;11.70;62.00
68766;DHT22;55756;45.582;11.484;2024-02-15T01:14:46;11.70;61.70
68766;DHT22;55756;45.582;11.484;2024-02-15T01:17:12;11.70;61.50
68766;DHT22;55756;45.582;11.484;2024-02-15T01:19:38;11.70;61.60
68766;DHT22;55756;45.582;11.484;2024-02-15T01:22:04;11.70;61.60
68766;DHT22;55756;45.582;11.484;2024-02-15T01:24:31;11.70;61.60
68766;DHT22;55756;45.582;11.484;2024-02-15T01:26:58;11.60;61.50
68766;DHT22;55756;45.582;11.484;2024-02-15T01:29:24;11.60;61.80
68766;DHT22;55756;45.582;11.484;2024-02-15T01:31:51;11.60;62.00
68766;DHT22;55756;45.582;11.484;2024-02-15T01:34:17;11.60;62.00
68766;DHT22;55756;45.582;11.484;2024-02-15T01:36:43;11.60;61.70
68766;DHT22;55756;45.582;11.484;2024-02-15T01:39:08;11.60;61.40
68766;DHT22;55756;45.582;11.484;2024-02-15T01:41:34;11.60;61.20
68766;DHT22;55756;45.582;11.484;2024-02-15T01:44:00;11.60;61.20
68766;DHT22;55756;45.582;11.484;2024-02-15T01:46:26;11.60;61.40
68766;DHT22;55756;45.582;11.484;2024-02-15T01:48:53;11.60;61.40
68766;DHT22;55756;45.582;11.484;2024-02-15T01:51:19;11.60;61.60
68766;DHT22;55756;45.582;11.484;2024-02-15T01:53:44;11.60;61.60
68766;DHT22;55756;45.582;11.484;2024-02-15T01:56:13;11.50;61.60
68766;DHT22;55756;45.582;11.484;2024-02-15T01:58:40;11.50;61.70
68766;DHT22;55756;45.582;11.484;2024-02-15T02:01:06;11.50;61.60
68766;DHT22;55756;45.582;11.484;2024-02-15T02:03:32;11.50;61.50
68766;DHT22;55756;45.582;11.484;2024-02-15T02:05:58;11.50;61.70
68766;DHT22;55756;45.582;11.484;2024-02-15T02:08:25;11.50;62.10
68766;DHT22;55756;45.582;11.484;2024-02-15T02:10:52;11.50;61.80
68766;DHT22;55756;45.582;11.484;2024-02-15T02:13:18;11.50;61.70
68766;DHT22;55756;45.582;11.484;2024-02-15T02:15:44;11.50;61.70
68766;DHT22;55756;45.582;11.484;2024-02-15T02:18:10;11.50;61.80
68766;DHT22;55756;45.582;11.484;2024-02-15T02:20:36;11.50;62.10
68766;DHT22;55756;45.582;11.484;2024-02-15T02:23:14;11.50;61.60
68766;DHT22;55756;45.582;11.484;2024-02-15T02:25:40;11.50;61.80
68766;DHT22;55756;45.582;11.484;2024-02-15T02:28:09;11.50;61.70
68766;DHT22;55756;45.582;11.484;2024-02-15T02:30:35;11.40;61.60
68766;DHT22;55756;45.582;11.484;2024-02-15T02:33:01;11.40;61.80
68766;DHT22;55756;45.582;11.484;2024-02-15T02:35:27;11.40;62.30
68766;DHT22;55756;45.582;11.484;2024-02-15T02:37:56;11.30;62.10
68766;DHT22;55756;45.582;11.484;2024-02-15T02:40:22;11.30;62.00
68766;DHT22;55756;45.582;11.484;2024-02-15T02:42:52;11.40;61.60
68766;DHT22;55756;45.582;11.484;2024-02-15T02:45:19;11.40;61.50
68766;DHT22;55756;45.582;11.484;2024-02-15T02:47:52;11.50;61.60
68766;DHT22;55756;45.582;11.484;2024-02-15T02:50:19;11.40;61.60
68766;DHT22;55756;45.582;11.484;2024-02-15T02:52:45;11.40;61.70
68766;DHT22;55756;45.582;11.484;2024-02-15T02:55:14;11.40;61.90
68766;DHT22;55756;45.582;11.484;2024-02-15T02:57:40;11.40;61.90
68766;DHT22;55756;45.582;11.484;2024-02-15T03:00:09;11.40;61.50
68766;DHT22;55756;45.582;11.484;2024-02-15T03:02:38;11.30;61.50
68766;DHT22;55756;45.582;11.484;2024-02-15T03:05:04;11.30;61.60
68766;DHT22;55756;45.582;11.484;2024-02-15T03:07:38;11.30;61.50
68766;DHT22;55756;45.582;11.484;2024-02-15T03:10:06;11.30;61.50
68766;DHT22;55756;45.582;11.484;2024-02-15T03:12:36;11.30;61.40
68766;DHT22;55756;45.582;11.484;2024-02-15T03:15:06;11.20;61.80
68766;DHT22;55756;45.582;11.484;2024-02-15T03:17:42;11.20;62.10
68766;DHT22;55756;45.582;11.484;2024-02-15T03:20:10;11.20;61.80
68766;DHT22;55756;45.582;11.484;2024-02-15T03:25:19;11.30;61.40
68766;DHT22;55756;45.582;11.484;2024-02-15T03:27:44;11.20;61.60
68766;DHT22;55756;45.582;11.484;2024-02-15T03:30:11;11.20;62.10
68766;DHT22;55756;45.582;11.484;2024-02-15T03:32:37;11.20;61.90
68766;DHT22;55756;45.582;11.484;2024-02-15T03:35:03;11.10;62.20
68766;DHT22;55756;45.582;11.484;2024-02-15T03:37:29;11.10;62.20
68766;DHT22;55756;45.582;11.484;2024-02-15T03:39:55;11.10;62.20
68766;DHT22;55756;45.582;11.484;2024-02-15T03:42:20;11.10;62.20
68766;DHT22;55756;45.582;11.484;2024-02-15T03:44:46;11.20;61.90
68766;DHT22;55756;45.582;11.484;2024-02-15T03:47:13;11.20;61.70
68766;DHT22;55756;45.582;11.484;2024-02-15T03:49:41;11.20;61.50
68766;DHT22;55756;45.582;11.484;2024-02-15T03:52:08;11.20;61.60
68766;DHT22;55756;45.582;11.484;2024-02-15T03:54:36;11.10;61.80
68766;DHT22;55756;45.582;11.484;2024-02-15T03:57:02;11.10;62.10
68766;DHT22;55756;45.582;11.484;2024-02-15T03:59:28;11.10;62.00
68766;DHT22;55756;45.582;11.484;2024-02-15T04:01:54;11.10;61.90
68766;DHT22;55756;45.582;11.484;2024-02-15T04:04:20;11.10;61.70
68766;DHT22;55756;45.582;11.484;2024-02-15T04:06:50;11.10;61.90
68766;DHT22;55756;45.582;11.484;2024-02-15T04:09:16;11.10;61.90
68766;DHT22;55756;45.582;11.484;2024-02-15T04:11:47;11.10;62.20
68766;DHT22;55756;45.582;11.484;2024-02-15T04:14:16;11.10;62.10
68766;DHT22;55756;45.582;11.484;2024-02-15T04:16:44;11.10;62.40
68766;DHT22;55756;45.582;11.484;2024-02-15T04:19:10;11.10;62.20
68766;DHT22;55756;45.582;11.484;2024-02-15T04:21:36;11.10;62.20
68766;DHT22;55756;45.582;11.484;2024-02-15T04:24:02;11.10;62.30
68766;DHT22;55756;45.582;11.484;2024-02-15T04:26:28;11.00;62.30
68766;DHT22;55756;45.582;11.484;2024-02-15T04:28:56;11.00;62.00
68766;DHT22;55756;45.582;11.484;2024-02-15T04:31:21;11.00;62.00
68766;DHT22;55756;45.582;11.484;2024-02-15T04:33:55;10.90;62.10
68766;DHT22;55756;45.582;11.484;2024-02-15T04:36:24;10.90;62.00
68766;DHT22;55756;45.582;11.484;2024-02-15T04:38:50;10.90;62.10
68766;DHT22;55756;45.582;11.484;2024-02-15T04:41:17;10.90;62.00
68766;DHT22;55756;45.582;11.484;2024-02-15T04:43:51;10.90;62.00
68766;DHT22;55756;45.582;11.484;2024-02-15T04:46:20;10.90;61.60
68766;DHT22;55756;45.582;11.484;2024-02-15T04:48:48;11.00;61.70
68766;DHT22;55756;45.582;11.484;2024-02-15T04:51:16;11.00;61.60
68766;DHT22;55756;45.582;11.484;2024-02-15T04:53:43;11.00;61.60
68766;DHT22;55756;45.582;11.484;2024-02-15T04:56:12;11.00;61.60
68766;DHT22;55756;45.582;11.484;2024-02-15T04:58:42;11.00;61.70
68766;DHT22;55756;45.582;11.484;2024-02-15T05:01:14;11.00;61.70
68766;DHT22;55756;45.582;11.484;2024-02-15T05:03:44;11.00;61.70
68766;DHT22;55756;45.582;11.484;2024-02-15T05:06:10;10.90;62.00
68766;DHT22;55756;45.582;11.484;2024-02-15T05:08:39;10.90;61.60
68766;DHT22;55756;45.582;11.484;2024-02-15T05:11:11;10.90;61.70
68766;DHT22;55756;45.582;11.484;2024-02-15T05:13:48;10.90;61.70
68766;DHT22;55756;45.582;11.484;2024-02-15T05:16:18;10.80;61.70
68766;DHT22;55756;45.582;11.484;2024-02-15T05:18:44;10.80;61.90
68766;DHT22;55756;45.582;11.484;2024-02-15T05:21:11;10.80;61.70
68766;DHT22;55756;45.582;11.484;2024-02-15T05:23:38;10.80;61.50
68766;DHT22;55756;45.582;11.484;2024-02-15T05:26:08;10.70;61.90
68766;DHT22;55756;45.582;11.484;2024-02-15T05:28:34;10.80;61.80
68766;DHT22;55756;45.582;11.484;2024-02-15T05:31:13;10.80;61.50
68766;DHT22;55756;45.582;11.484;2024-02-15T05:33:49;10.70;61.20
68766;DHT22;55756;45.582;11.484;2024-02-15T05:36:16;10.70;61.30
68766;DHT22;55756;45.582;11.484;2024-02-15T05:38:42;10.70;61.10
68766;DHT22;55756;45.582;11.484;2024-02-15T05:41:10;10.70;61.00
68766;DHT22;55756;45.582;11.484;2024-02-15T05:43:38;10.70;61.30
68766;DHT22;55756;45.582;11.484;2024-02-15T05:46:04;10.70;61.60
68766;DHT22;55756;45.582;11.484;2024-02-15T05:48:32;10.60;61.50
68766;DHT22;55756;45.582;11.484;2024-02-15T05:51:01;10.70;61.30
68766;DHT22;55756;45.582;11.484;2024-02-15T05:53:27;10.70;61.40
68766;DHT22;55756;45.582;11.484;2024-02-15T05:55:55;10.70;61.30
68766;DHT22;55756;45.582;11.484;2024-02-15T05:58:21;10.70;61.40
68766;DHT22;55756;45.582;11.484;2024-02-15T06:00:46;10.60;61.30
68766;DHT22;55756;45.582;11.484;2024-02-15T06:03:19;10.60;61.10
68766;DHT22;55756;45.582;11.484;2024-02-15T06:05:48;10.60;60.90
68766;DHT22;55756;45.582;11.484;2024-02-15T06:08:14;10.50;60.90
68766;DHT22;55756;45.582;11.484;2024-02-15T06:10:40;10.60;60.80
68766;DHT22;55756;45.582;11.484;2024-02-15T06:13:06;10.60;61.00
68766;DHT22;55756;45.582;11.484;2024-02-15T06:15:35;10.60;61.00
68766;DHT22;55756;45.582;11.484;2024-02-15T06:18:02;10.60;61.00
68766;DHT22;55756;45.582;11.484;2024-02-15T06:20:34;10.50;61.40
68766;DHT22;55756;45.582;11.484;2024-02-15T06:23:01;10.50;61.50
68766;DHT22;55756;45.582;11.484;2024-02-15T06:25:34;10.50;61.30
68766;DHT22;55756;45.582;11.484;2024-02-15T06:28:00;10.50;61.30
68766;DHT22;55756;45.582;11.484;2024-02-15T06:30:32;10.60;61.50
68766;DHT22;55756;45.582;11.484;2024-02-15T06:33:16;10.50;61.10
68766;DHT22;55756;45.582;11.484;2024-02-15T06:36:05;10.60;60.80
68766;DHT22;55756;45.582;11.484;2024-02-15T06:38:49;10.60;60.60
68766;DHT22;55756;45.582;11.484;2024-02-15T06:41:33;10.50;61.00
68766;DHT22;55756;45.582;11.484;2024-02-15T06:43:59;10.50;61.20
68766;DHT22;55756;45.582;11.484;2024-02-15T06:46:25;10.50;61.40
68766;DHT22;55756;45.582;11.484;2024-02-15T06:48:51;10.50;61.20
68766;DHT22;55756;45.582;11.484;2024-02-15T06:51:18;10.50;61.50
68766;DHT22;55756;45.582;11.484;2024-02-15T06:53:44;10.50;61.60
68766;DHT22;55756;45.582;11.484;2024-02-15T06:56:10;10.60;61.50
68766;DHT22;55756;45.582;11.484;2024-02-15T06:58:39;10.60;61.60
68766;DHT22;55756;45.582;11.484;2024-02-15T07:01:06;10.60;61.70
68766;DHT22;55756;45.582;11.484;2024-02-15T07:03:31;10.60;61.90
68766;DHT22;55756;45.582;11.484;2024-02-15T07:06:00;10.60;62.10
68766;DHT22;55756;45.582;11.484;2024-02-15T07:08:28;10.60;62.20
68766;DHT22;55756;45.582;11.484;2024-02-15T07:10:55;10.60;62.30
68766;DHT22;55756;45.582;11.484;2024-02-15T07:13:20;10.60;62.40
68766;DHT22;55756;45.582;11.484;2024-02-15T07:15:46;10.60;62.60
68766;DHT22;55756;45.582;11.484;2024-02-15T07:18:12;10.60;62.60
68766;DHT22;55756;45.582;11.484;2024-02-15T07:20:42;10.60;62.50
68766;DHT22;55756;45.582;11.484;2024-02-15T07:23:08;10.70;62.70
68766;DHT22;55756;45.582;11.484;2024-02-15T07:25:33;10.70;62.60
68766;DHT22;55756;45.582;11.484;2024-02-15T07:28:00;10.80;62.40
68766;DHT22;55756;45.582;11.484;2024-02-15T07:30:26;10.80;62.40
68766;DHT22;55756;45.582;11.484;2024-02-15T07:32:51;10.80;62.20
68766;DHT22;55756;45.582;11.484;2024-02-15T07:35:17;10.80;62.20
68766;DHT22;55756;45.582;11.484;2024-02-15T07:37:54;10.90;62.50
68766;DHT22;55756;45.582;11.484;2024-02-15T07:40:24;10.90;62.70
68766;DHT22;55756;45.582;11.484;2024-02-15T07:42:56;10.90;62.90
68766;DHT22;55756;45.582;11.484;2024-02-15T07:45:22;11.00;63.20
68766;DHT22;55756;45.582;11.484;2024-02-15T07:47:48;11.00;63.10
68766;DHT22;55756;45.582;11.484;2024-02-15T07:50:17;11.00;63.20
68766;DHT22;55756;45.582;11.484;2024-02-15T07:52:47;11.00;63.40
68766;DHT22;55756;45.582;11.484;2024-02-15T07:55:13;11.10;63.60
68766;DHT22;55756;45.582;11.484;2024-02-15T07:57:39;11.10;63.70
68766;DHT22;55756;45.582;11.484;2024-02-15T08:00:06;11.20;63.80
68766;DHT22;55756;45.582;11.484;2024-02-15T08:02:39;11.20;63.90
68766;DHT22;55756;45.582;11.484;2024-02-15T08:05:11;11.20;63.90
68766;DHT22;55756;45.582;11.484;2024-02-15T08:07:44;11.30;63.80
68766;DHT22;55756;45.582;11.484;2024-02-15T08:10:11;11.30;64.00
68766;DHT22;55756;45.582;11.484;2024-02-15T08:12:43;11.40;63.90
68766;DHT22;55756;45.582;11.484;2024-02-15T08:15:10;11.40;64.20
68766;DHT22;55756;45.582;11.484;2024-02-15T08:17:41;11.40;64.20
68766;DHT22;55756;45.582;11.484;2024-02-15T08:20:09;11.40;64.30
68766;DHT22;55756;45.582;11.484;2024-02-15T08:22:35;11.50;64.30
68766;DHT22;55756;45.582;11.484;2024-02-15T08:25:06;11.50;64.60
68766;DHT22;55756;45.582;11.484;2024-02-15T08:27:32;11.50;64.80
68766;DHT22;55756;45.582;11.484;2024-02-15T08:29:59;11.60;64.70
68766;DHT22;55756;45.582;11.484;2024-02-15T08:32:25;11.70;64.30
68766;DHT22;55756;45.582;11.484;2024-02-15T08:34:51;11.70;64.30
68766;DHT22;55756;45.582;11.484;2024-02-15T08:37:17;11.80;64.20
68766;DHT22;55756;45.582;11.484;2024-02-15T08:39:44;11.80;64.20
68766;DHT22;55756;45.582;11.484;2024-02-15T08:42:10;11.90;64.10
68766;DHT22;55756;45.582;11.484;2024-02-15T08:44:36;12.00;64.10
68766;DHT22;55756;45.582;11.484;2024-02-15T08:47:02;12.00;64.10
68766;DHT22;55756;45.582;11.484;2024-02-15T08:49:30;12.10;64.20
68766;DHT22;55756;45.582;11.484;2024-02-15T08:51:56;12.10;64.20
68766;DHT22;55756;45.582;11.484;2024-02-15T08:54:22;12.20;64.20
68766;DHT22;55756;45.582;11.484;2024-02-15T08:56:48;12.20;64.00
68766;DHT22;55756;45.582;11.484;2024-02-15T08:59:14;12.30;63.90
68766;DHT22;55756;45.582;11.484;2024-02-15T09:01:42;12.30;64.10
68766;DHT22;55756;45.582;11.484;2024-02-15T09:04:09;12.40;63.50
68766;DHT22;55756;45.582;11.484;2024-02-15T09:06:34;12.40;63.60
68766;DHT22;55756;45.582;11.484;2024-02-15T09:09:00;12.40;63.30
68766;DHT22;55756;45.582;11.484;2024-02-15T09:11:29;12.50;63.30
68766;DHT22;55756;45.582;11.484;2024-02-15T09:13:55;12.50;63.00
68766;DHT22;55756;45.582;11.484;2024-02-15T09:16:21;12.50;63.20
68766;DHT22;55756;45.582;11.484;2024-02-15T09:18:47;12.50;62.70
68766;DHT22;55756;45.582;11.484;2024-02-15T09:21:13;12.60;62.70
68766;DHT22;55756;45.582;11.484;2024-02-15T09:23:39;12.60;62.20
68766;DHT22;55756;45.582;11.484;2024-02-15T09:26:05;12.60;62.40
68766;DHT22;55756;45.582;11.484;2024-02-15T09:28:31;12.60;61.90
68766;DHT22;55756;45.582;11.484;2024-02-15T09:30:56;12.70;61.60
68766;DHT22;55756;45.582;11.484;2024-02-15T09:33:24;12.70;61.90
68766;DHT22;55756;45.582;11.484;2024-02-15T09:35:51;12.70;62.00
68766;DHT22;55756;45.582;11.484;2024-02-15T09:38:17;12.80;61.80
68766;DHT22;55756;45.582;11.484;2024-02-15T09:40:48;12.80;61.80
68766;DHT22;55756;45.582;11.484;2024-02-15T09:43:15;12.80;61.90
68766;DHT22;55756;45.582;11.484;2024-02-15T09:45:41;12.90;62.50
68766;DHT22;55756;45.582;11.484;2024-02-15T09:48:10;12.90;63.20
68766;DHT22;55756;45.582;11.484;2024-02-15T09:50:36;12.90;63.50
68766;DHT22;55756;45.582;11.484;2024-02-15T09:53:04;13.00;63.70
68766;DHT22;55756;45.582;11.484;2024-02-15T09:55:34;13.00;64.20
68766;DHT22;55756;45.582;11.484;2024-02-15T09:58:00;13.00;63.70
68766;DHT22;55756;45.582;11.484;2024-02-15T10:00:26;13.00;64.10
68766;DHT22;55756;45.582;11.484;2024-02-15T10:02:52;13.10;64.10
68766;DHT22;55756;45.582;11.484;2024-02-15T10:05:19;13.10;64.00
68766;DHT22;55756;45.582;11.484;2024-02-15T10:07:45;13.10;64.00
68766;DHT22;55756;45.582;11.484;2024-02-15T10:10:25;13.20;63.50
68766;DHT22;55756;45.582;11.484;2024-02-15T10:12:54;13.20;63.40
68766;DHT22;55756;45.582;11.484;2024-02-15T10:15:27;13.20;63.40
68766;DHT22;55756;45.582;11.484;2024-02-15T10:17:57;13.20;63.60
68766;DHT22;55756;45.582;11.484;2024-02-15T10:20:24;13.30;63.70
68766;DHT22;55756;45.582;11.484;2024-02-15T10:25:27;13.30;63.60
68766;DHT22;55756;45.582;11.484;2024-02-15T10:28:09;13.40;63.00
68766;DHT22;55756;45.582;11.484;2024-02-15T10:30:40;13.40;63.10
68766;DHT22;55756;45.582;11.484;2024-02-15T10:33:09;13.40;63.40
68766;DHT22;55756;45.582;11.484;2024-02-15T10:35:35;13.40;63.40
68766;DHT22;55756;45.582;11.484;2024-02-15T10:38:25;13.40;63.10
68766;DHT22;55756;45.582;11.484;2024-02-15T10:41:03;13.50;62.80
68766;DHT22;55756;45.582;11.484;2024-02-15T10:43:30;13.50;62.60
68766;DHT22;55756;45.582;11.484;2024-02-15T10:45:58;13.50;62.60
68766;DHT22;55756;45.582;11.484;2024-02-15T10:48:24;13.60;63.10
68766;DHT22;55756;45.582;11.484;2024-02-15T10:50:51;13.60;62.80
68766;DHT22;55756;45.582;11.484;2024-02-15T10:53:26;13.60;62.60
68766;DHT22;55756;45.582;11.484;2024-02-15T10:59:02;13.70;62.00
68766;DHT22;55756;45.582;11.484;2024-02-15T11:01:27;13.70;62.20
68766;DHT22;55756;45.582;11.484;2024-02-15T11:04:00;13.70;61.50
68766;DHT22;55756;45.582;11.484;2024-02-15T11:06:27;13.80;61.20
68766;DHT22;55756;45.582;11.484;2024-02-15T11:08:55;13.80;60.70
68766;DHT22;55756;45.582;11.484;2024-02-15T11:11:22;13.90;60.40
68766;DHT22;55756;45.582;11.484;2024-02-15T11:13:48;13.90;61.30
68766;DHT22;55756;45.582;11.484;2024-02-15T11:16:39;13.90;61.10
68766;DHT22;55756;45.582;11.484;2024-02-15T11:19:05;14.00;60.50
68766;DHT22;55756;45.582;11.484;2024-02-15T11:21:54;14.00;60.80
68766;DHT22;55756;45.582;11.484;2024-02-15T11:24:33;14.00;60.80
68766;DHT22;55756;45.582;11.484;2024-02-15T11:27:05;14.00;59.90
68766;DHT22;55756;45.582;11.484;2024-02-15T11:32:43;14.10;59.60
68766;DHT22;55756;45.582;11.484;2024-02-15T11:35:17;14.10;59.90
68766;DHT22;55756;45.582;11.484;2024-02-15T11:40:19;14.10;59.80
68766;DHT22;55756;45.582;11.484;2024-02-15T11:42:45;14.20;59.90
68766;DHT22;55756;45.582;11.484;2024-02-15T11:45:15;14.20;60.20
68766;DHT22;55756;45.582;11.484;2024-02-15T11:47:47;14.20;60.50
68766;DHT22;55756;45.582;11.484;2024-02-15T11:50:16;14.30;60.00
68766;DHT22;55756;45.582;11.484;2024-02-15T11:52:43;14.30;60.70
68766;DHT22;55756;45.582;11.484;2024-02-15T11:55:10;14.30;60.70
68766;DHT22;55756;45.582;11.484;2024-02-15T12:00:26;14.40;60.70
68766;DHT22;55756;45.582;11.484;2024-02-15T12:03:14;14.40;60.80
68766;DHT22;55756;45.582;11.484;2024-02-15T12:05:58;14.40;60.60
68766;DHT22;55756;45.582;11.484;2024-02-15T12:08:51;14.40;60.60
68766;DHT22;55756;45.582;11.484;2024-02-15T12:11:36;14.50;60.70
68766;DHT22;55756;45.582;11.484;2024-02-15T12:14:20;14.50;60.70
68766;DHT22;55756;45.582;11.484;2024-02-15T12:17:06;14.50;60.60
68766;DHT22;55756;45.582;11.484;2024-02-15T12:19:52;14.60;61.00
68766;DHT22;55756;45.582;11.484;2024-02-15T12:22:23;14.60;60.50
68766;DHT22;55756;45.582;11.484;2024-02-15T12:25:17;14.70;60.70
68766;DHT22;55756;45.582;11.484;2024-02-15T12:27:47;14.70;60.40
68766;DHT22;55756;45.582;11.484;2024-02-15T12:30:18;14.70;60.30
68766;DHT22;55756;45.582;11.484;2024-02-15T12:32:49;14.70;60.60
68766;DHT22;55756;45.582;11.484;2024-02-15T12:35:22;14.70;60.00
68766;DHT22;55756;45.582;11.484;2024-02-15T12:38:02;14.80;60.10
68766;DHT22;55756;45.582;11.484;2024-02-15T12:40:34;14.80;59.90
68766;DHT22;55756;45.582;11.484;2024-02-15T12:43:02;14.90;59.50
68766;DHT22;55756;45.582;11.484;2024-02-15T12:45:31;14.90;59.10
68766;DHT22;55756;45.582;11.484;2024-02-15T12:47:58;15.00;58.90
68766;DHT22;55756;45.582;11.484;2024-02-15T12:50:28;15.00;58.50
68766;DHT22;55756;45.582;11.484;2024-02-15T12:52:54;15.10;58.50
68766;DHT22;55756;45.582;11.484;2024-02-15T12:55:35;15.10;58.40
68766;DHT22;55756;45.582;11.484;2024-02-15T12:58:03;15.10;59.10
68766;DHT22;55756;45.582;11.484;2024-02-15T13:00:30;15.10;57.40
68766;DHT22;55756;45.582;11.484;2024-02-15T13:03:06;15.20;58.50
68766;DHT22;55756;45.582;11.484;2024-02-15T13:05:34;15.20;58.40
68766;DHT22;55756;45.582;11.484;2024-02-15T13:08:02;15.20;58.10
68766;DHT22;55756;45.582;11.484;2024-02-15T13:10:31;15.30;58.40
68766;DHT22;55756;45.582;11.484;2024-02-15T13:12:57;15.30;57.80
68766;DHT22;55756;45.582;11.484;2024-02-15T13:15:24;15.30;57.50
68766;DHT22;55756;45.582;11.484;2024-02-15T13:17:58;15.40;57.50
68766;DHT22;55756;45.582;11.484;2024-02-15T13:20:26;15.40;58.00
68766;DHT22;55756;45.582;11.484;2024-02-15T13:22:59;15.40;58.20
68766;DHT22;55756;45.582;11.484;2024-02-15T13:25:32;15.50;58.30
68766;DHT22;55756;45.582;11.484;2024-02-15T13:27:57;15.40;58.10
68766;DHT22;55756;45.582;11.484;2024-02-15T13:30:23;15.40;57.90
68766;DHT22;55756;45.582;11.484;2024-02-15T13:32:53;15.40;57.70
68766;DHT22;55756;45.582;11.484;2024-02-15T13:35:20;15.40;57.40
68766;DHT22;55756;45.582;11.484;2024-02-15T13:37:55;15.50;57.50
68766;DHT22;55756;45.582;11.484;2024-02-15T13:40:24;15.50;57.70
68766;DHT22;55756;45.582;11.484;2024-02-15T13:42:52;15.50;57.80
68766;DHT22;55756;45.582;11.484;2024-02-15T13:45:22;15.50;57.80
68766;DHT22;55756;45.582;11.484;2024-02-15T13:47:49;15.50;57.30
68766;DHT22;55756;45.582;11.484;2024-02-15T13:50:16;15.50;58.00
68766;DHT22;55756;45.582;11.484;2024-02-15T13:52:45;15.50;58.20
68766;DHT22;55756;45.582;11.484;2024-02-15T13:55:17;15.50;58.20
68766;DHT22;55756;45.582;11.484;2024-02-15T13:57:47;15.50;57.80
68766;DHT22;55756;45.582;11.484;2024-02-15T14:00:17;15.50;57.40
68766;DHT22;55756;45.582;11.484;2024-02-15T14:02:54;15.50;58.10
68766;DHT22;55756;45.582;11.484;2024-02-15T14:05:21;15.50;58.00
68766;DHT22;55756;45.582;11.484;2024-02-15T14:07:50;15.60;59.00
68766;DHT22;55756;45.582;11.484;2024-02-15T14:10:19;15.60;59.40
68766;DHT22;55756;45.582;11.484;2024-02-15T14:12:47;15.50;59.10
68766;DHT22;55756;45.582;11.484;2024-02-15T14:15:14;15.50;59.40
68766;DHT22;55756;45.582;11.484;2024-02-15T14:17:40;15.60;59.50
68766;DHT22;55756;45.582;11.484;2024-02-15T14:20:07;15.60;59.60
68766;DHT22;55756;45.582;11.484;2024-02-15T14:22:46;15.60;59.80
68766;DHT22;55756;45.582;11.484;2024-02-15T14:25:18;15.60;60.20
68766;DHT22;55756;45.582;11.484;2024-02-15T14:27:45;15.60;59.90
68766;DHT22;55756;45.582;11.484;2024-02-15T14:30:13;15.60;59.70
68766;DHT22;55756;45.582;11.484;2024-02-15T14:32:57;15.70;60.20
68766;DHT22;55756;45.582;11.484;2024-02-15T14:35:33;15.70;60.60
68766;DHT22;55756;45.582;11.484;2024-02-15T14:38:08;15.60;60.70
68766;DHT22;55756;45.582;11.484;2024-02-15T14:40:40;15.60;60.50
68766;DHT22;55756;45.582;11.484;2024-02-15T14:43:07;15.60;60.50
68766;DHT22;55756;45.582;11.484;2024-02-15T14:45:40;15.70;60.40
68766;DHT22;55756;45.582;11.484;2024-02-15T14:48:10;15.70;60.40
68766;DHT22;55756;45.582;11.484;2024-02-15T14:50:36;15.70;60.40
68766;DHT22;55756;45.582;11.484;2024-02-15T14:53:03;15.70;60.70
68766;DHT22;55756;45.582;11.484;2024-02-15T14:55:28;15.70;60.90
68766;DHT22;55756;45.582;11.484;2024-02-15T14:57:57;15.70;60.90
68766;DHT22;55756;45.582;11.484;2024-02-15T15:00:23;15.70;61.20
68766;DHT22;55756;45.582;11.484;2024-02-15T15:02:50;15.70;61.00
68766;DHT22;55756;45.582;11.484;2024-02-15T15:05:16;15.70;61.30
68766;DHT22;55756;45.582;11.484;2024-02-15T15:08:01;15.70;61.10
68766;DHT22;55756;45.582;11.484;2024-02-15T15:10:46;15.70;60.90
68766;DHT22;55756;45.582;11.484;2024-02-15T15:13:31;15.70;61.30
68766;DHT22;55756;45.582;11.484;2024-02-15T15:15:57;15.70;61.10
68766;DHT22;55756;45.582;11.484;2024-02-15T15:18:23;15.70;61.10
68766;DHT22;55756;45.582;11.484;2024-02-15T15:20:48;15.70;61.10
68766;DHT22;55756;45.582;11.484;2024-02-15T15:23:15;15.70;60.90
68766;DHT22;55756;45.582;11.484;2024-02-15T15:25:41;15.70;60.90
68766;DHT22;55756;45.582;11.484;2024-02-15T15:28:07;15.70;60.60
68766;DHT22;55756;45.582;11.484;2024-02-15T15:30:33;15.70;60.90
68766;DHT22;55756;45.582;11.484;2024-02-15T15:33:00;15.70;60.80
68766;DHT22;55756;45.582;11.484;2024-02-15T15:35:26;15.70;60.90
68766;DHT22;55756;45.582;11.484;2024-02-15T15:37:58;15.70;61.00
68766;DHT22;55756;45.582;11.484;2024-02-15T15:40:24;15.70;61.00
68766;DHT22;55756;45.582;11.484;2024-02-15T15:42:50;15.70;60.80